createdAt,value
2022-11-15T00:01:19.213Z,6.50
2022-11-15T00:03:47.916Z,6.50
2022-11-15T00:06:17.425Z,6.50
2022-11-15T00:08:45.586Z,6.60
2022-11-15T00:11:14.787Z,6.50
2022-11-15T00:13:43.188Z,6.50
2022-11-15T00:16:12.222Z,6.50
2022-11-15T00:18:40.723Z,6.50
2022-11-15T00:21:11.561Z,6.50
2022-11-15T00:23:41.094Z,6.40
2022-11-15T00:26:10.009Z,6.40
2022-11-15T00:28:38.110Z,6.50
2022-11-15T00:31:08.169Z,6.40
2022-11-15T00:33:36.573Z,6.40
2022-11-15T00:36:05.788Z,6.50
2022-11-15T00:38:34.845Z,6.40
2022-11-15T00:41:09.546Z,6.50
2022-11-15T00:43:40.848Z,6.50
2022-11-15T00:46:10.815Z,6.50
2022-11-15T00:48:39.324Z,6.50
2022-11-15T00:51:07.623Z,6.50
2022-11-15T00:53:35.897Z,6.50
2022-11-15T00:56:05.608Z,6.50
2022-11-15T00:58:33.739Z,6.60
2022-11-15T01:01:09.040Z,6.60
2022-11-15T01:03:37.592Z,6.60
2022-11-15T01:06:06.220Z,6.50
2022-11-15T01:08:34.525Z,6.40
2022-11-15T01:11:05.268Z,6.50
2022-11-15T01:13:34.438Z,6.60
2022-11-15T01:16:08.700Z,6.50
2022-11-15T01:18:36.799Z,6.50
2022-11-15T01:21:08.585Z,6.50
2022-11-15T01:23:37.027Z,6.50
2022-11-15T01:26:08.976Z,6.50
2022-11-15T01:28:39.573Z,6.50
2022-11-15T01:31:09.375Z,6.60
2022-11-15T01:33:37.985Z,6.50
2022-11-15T01:36:07.096Z,6.50
2022-11-15T01:38:35.434Z,6.60
2022-11-15T01:41:03.583Z,6.60
2022-11-15T01:43:35.140Z,6.60
2022-11-15T01:46:08.116Z,6.50
2022-11-15T01:48:37.319Z,6.40
2022-11-15T01:51:13.790Z,6.50
2022-11-15T01:53:45.719Z,6.40
2022-11-15T01:56:17.686Z,6.30
2022-11-15T01:58:47.851Z,6.30
2022-11-15T02:01:16.644Z,6.40
2022-11-15T02:03:52.640Z,6.30
2022-11-15T02:06:21.560Z,6.40
2022-11-15T02:08:49.745Z,6.40
2022-11-15T02:11:17.839Z,6.30
2022-11-15T02:13:47.571Z,6.30
2022-11-15T02:16:24.276Z,6.20
2022-11-15T02:18:59.318Z,6.20
2022-11-15T02:21:34.522Z,6.10
2022-11-15T02:24:38.586Z,6.10
2022-11-15T02:27:35.779Z,6.10
2022-11-15T02:30:27.030Z,6.20
2022-11-15T02:32:59.674Z,6.20
2022-11-15T02:35:39.632Z,6.20
2022-11-15T02:38:14.628Z,6.20
2022-11-15T02:40:50.434Z,6.20
2022-11-15T02:43:48.142Z,6.20
2022-11-15T02:46:22.894Z,6.20
2022-11-15T02:48:51.398Z,6.20
2022-11-15T02:51:20.541Z,6.20
2022-11-15T02:53:48.746Z,6.20
2022-11-15T02:56:16.885Z,6.20
2022-11-15T02:59:11.999Z,6.20
2022-11-15T03:01:51.855Z,6.20
2022-11-15T03:04:29.279Z,6.20
2022-11-15T03:07:02.803Z,6.20
2022-11-15T03:09:37.192Z,6.20
2022-11-15T03:12:10.033Z,6.10
2022-11-15T03:14:45.203Z,6.10
2022-11-15T03:17:20.113Z,6.10
2022-11-15T03:19:51.582Z,6.10
2022-11-15T03:22:23.174Z,6.10
2022-11-15T03:24:56.358Z,6.00
2022-11-15T03:27:27.755Z,6.00
2022-11-15T03:29:59.540Z,6.00
2022-11-15T03:32:34.049Z,6.00
2022-11-15T03:35:07.362Z,6.00
2022-11-15T03:37:39.444Z,6.00
2022-11-15T03:40:08.717Z,5.90
2022-11-15T03:42:40.928Z,5.90
2022-11-15T03:45:17.327Z,5.90
2022-11-15T03:47:51.403Z,6.00
2022-11-15T03:50:21.874Z,6.00
2022-11-15T03:52:51.269Z,6.00
2022-11-15T03:55:21.720Z,6.00
2022-11-15T03:57:53.281Z,6.00
2022-11-15T04:00:21.510Z,5.90
2022-11-15T04:02:50.975Z,5.90
2022-11-15T04:05:19.333Z,5.90
2022-11-15T04:07:47.442Z,5.90
2022-11-15T04:10:16.309Z,5.80
2022-11-15T04:12:48.229Z,5.90
2022-11-15T04:15:18.472Z,5.90
2022-11-15T04:17:48.514Z,5.90
2022-11-15T04:20:37.302Z,5.90
2022-11-15T04:23:25.317Z,5.90
2022-11-15T04:25:56.060Z,5.80
2022-11-15T04:28:24.793Z,5.80
2022-11-15T04:30:52.973Z,5.80
2022-11-15T04:33:21.420Z,5.80
2022-11-15T04:36:04.996Z,5.80
2022-11-15T04:38:33.204Z,5.80
2022-11-15T04:41:01.448Z,5.80
2022-11-15T04:43:30.018Z,5.90
2022-11-15T04:45:58.488Z,5.80
2022-11-15T04:48:26.608Z,5.80
2022-11-15T04:50:56.099Z,5.80
2022-11-15T04:53:24.299Z,5.80
2022-11-15T04:55:52.404Z,5.80
2022-11-15T04:58:20.508Z,5.80
2022-11-15T05:00:48.704Z,5.80
2022-11-15T05:03:34.432Z,5.80
2022-11-15T05:06:04.281Z,5.80
2022-11-15T05:08:32.399Z,5.90
2022-11-15T05:11:00.521Z,5.90
2022-11-15T05:13:28.798Z,5.90
2022-11-15T05:15:57.096Z,5.90
2022-11-15T05:18:25.203Z,5.90
2022-11-15T05:20:53.328Z,5.90
2022-11-15T05:23:22.807Z,5.90
2022-11-15T05:25:50.897Z,6.00
2022-11-15T05:28:18.998Z,6.00
2022-11-15T05:30:47.093Z,6.00
2022-11-15T05:33:15.182Z,6.00
2022-11-15T05:35:47.195Z,6.10
2022-11-15T05:38:15.318Z,6.10
2022-11-15T05:40:44.837Z,6.00
2022-11-15T05:43:13.200Z,6.00
2022-11-15T05:45:41.315Z,5.90
2022-11-15T05:48:11.562Z,5.90
2022-11-15T05:50:41.769Z,6.00
2022-11-15T05:53:10.237Z,6.00
2022-11-15T05:55:40.294Z,6.00
2022-11-15T05:58:09.913Z,6.00
2022-11-15T06:00:38.205Z,6.00
2022-11-15T06:03:06.313Z,6.10
2022-11-15T06:05:34.415Z,6.00
2022-11-15T06:08:02.693Z,6.00
2022-11-15T06:10:30.774Z,5.90
2022-11-15T06:13:00.164Z,5.90
2022-11-15T06:15:29.670Z,5.90
2022-11-15T06:17:59.492Z,5.90
2022-11-15T06:20:27.863Z,6.00
2022-11-15T06:22:59.999Z,6.00
2022-11-15T06:25:28.902Z,6.00
2022-11-15T06:27:58.643Z,6.00
2022-11-15T06:30:27.674Z,5.90
2022-11-15T06:33:03.555Z,5.90
2022-11-15T06:35:32.832Z,6.00
2022-11-15T06:38:05.798Z,5.90
2022-11-15T06:40:37.331Z,5.90
2022-11-15T06:43:06.449Z,5.90
2022-11-15T06:45:35.059Z,5.80
2022-11-15T06:48:04.650Z,5.80
2022-11-15T06:50:32.751Z,5.80
2022-11-15T06:53:04.030Z,5.80
2022-11-15T06:55:32.281Z,5.90
2022-11-15T06:58:00.390Z,6.00
2022-11-15T07:00:28.531Z,6.00
2022-11-15T07:02:56.650Z,6.10
2022-11-15T07:05:26.143Z,6.10
2022-11-15T07:07:55.303Z,6.10
2022-11-15T07:10:25.214Z,6.10
2022-11-15T07:12:53.733Z,6.10
2022-11-15T07:15:24.110Z,6.10
2022-11-15T07:17:52.278Z,6.10
2022-11-15T07:20:20.585Z,6.00
2022-11-15T07:22:50.129Z,6.10
2022-11-15T07:25:18.454Z,6.10
2022-11-15T07:27:55.813Z,6.20
2022-11-15T07:30:24.104Z,6.20
2022-11-15T07:32:55.246Z,6.20
2022-11-15T07:35:23.502Z,6.20
2022-11-15T07:38:00.901Z,6.20
2022-11-15T07:40:30.765Z,6.20
2022-11-15T07:43:02.103Z,6.10
2022-11-15T07:45:30.817Z,6.20
2022-11-15T07:47:59.286Z,6.20
2022-11-15T07:50:27.696Z,6.30
2022-11-15T07:52:56.738Z,6.40
2022-11-15T07:55:26.929Z,6.40
2022-11-15T07:57:55.201Z,6.40
2022-11-15T08:00:23.336Z,6.30
2022-11-15T08:02:51.503Z,6.30
2022-11-15T08:05:19.711Z,6.30
2022-11-15T08:07:47.805Z,6.30
2022-11-15T08:10:17.821Z,6.20
2022-11-15T08:12:47.413Z,6.20
2022-11-15T08:15:15.698Z,6.20
2022-11-15T08:17:43.802Z,6.10
2022-11-15T08:20:12.897Z,6.10
2022-11-15T08:22:41.027Z,6.20
2022-11-15T08:25:09.463Z,6.40
2022-11-15T08:27:37.601Z,6.50
2022-11-15T08:30:08.457Z,6.50
2022-11-15T08:32:36.655Z,6.50
2022-11-15T08:35:05.147Z,6.50
2022-11-15T08:37:33.236Z,6.60
2022-11-15T08:40:01.485Z,6.60
2022-11-15T08:42:29.607Z,6.50
2022-11-15T08:44:57.731Z,6.50
2022-11-15T08:47:27.495Z,6.60
2022-11-15T08:49:55.707Z,6.50
2022-11-15T08:52:23.984Z,6.40
2022-11-15T08:54:52.107Z,6.40
2022-11-15T08:57:20.444Z,6.50
2022-11-15T08:59:48.571Z,6.50
2022-11-15T09:02:17.096Z,6.50
2022-11-15T09:04:46.835Z,6.50
2022-11-15T09:07:16.027Z,6.60
2022-11-15T09:09:44.370Z,6.60
2022-11-15T09:12:12.623Z,6.60
2022-11-15T09:14:40.798Z,6.70
2022-11-15T09:17:10.594Z,6.80
2022-11-15T09:19:39.004Z,6.80
2022-11-15T09:22:10.039Z,6.90
2022-11-15T09:24:38.171Z,6.90
2022-11-15T09:27:06.282Z,7.00
2022-11-15T09:29:34.878Z,7.00
2022-11-15T09:32:03.010Z,7.00
2022-11-15T09:34:31.107Z,7.10
2022-11-15T09:36:59.260Z,7.10
2022-11-15T09:39:28.756Z,7.10
2022-11-15T09:42:14.361Z,7.20
2022-11-15T09:44:56.442Z,7.20
2022-11-15T09:48:06.030Z,7.30
2022-11-15T09:50:40.882Z,7.30
2022-11-15T09:53:15.042Z,7.20
2022-11-15T09:55:51.102Z,7.10
2022-11-15T09:58:29.339Z,6.90
2022-11-15T10:01:01.030Z,6.90
2022-11-15T10:03:33.611Z,6.90
2022-11-15T10:06:04.130Z,6.90
2022-11-15T10:08:48.347Z,6.80
2022-11-15T10:11:36.731Z,6.80
2022-11-15T10:14:12.750Z,6.90
2022-11-15T10:17:04.121Z,7.00
2022-11-15T10:19:37.746Z,7.10
2022-11-15T10:22:20.102Z,7.10
2022-11-15T10:24:49.074Z,7.20
2022-11-15T10:27:20.198Z,7.00
2022-11-15T10:29:49.845Z,7.00
2022-11-15T10:32:20.440Z,7.00
2022-11-15T10:34:49.149Z,6.90
2022-11-15T10:37:28.921Z,6.90
2022-11-15T10:40:06.014Z,6.80
2022-11-15T10:42:35.583Z,6.80
2022-11-15T10:45:04.114Z,6.80
2022-11-15T10:47:38.954Z,6.80
2022-11-15T10:50:27.112Z,6.70
2022-11-15T10:52:55.743Z,6.80
2022-11-15T10:55:28.345Z,6.80
2022-11-15T10:58:05.733Z,6.90
2022-11-15T11:00:37.364Z,7.00
2022-11-15T11:03:08.274Z,7.10
2022-11-15T11:05:42.260Z,7.20
2022-11-15T11:08:24.321Z,7.30
2022-11-15T11:11:01.301Z,7.40
2022-11-15T11:13:35.210Z,7.40
2022-11-15T11:16:19.508Z,7.40
2022-11-15T11:18:54.176Z,7.40
2022-11-15T11:21:33.018Z,7.40
2022-11-15T11:24:10.842Z,7.40
2022-11-15T11:26:50.600Z,7.40
2022-11-15T11:29:35.248Z,7.40
2022-11-15T11:32:15.977Z,7.50
2022-11-15T11:34:56.481Z,7.60
2022-11-15T11:37:32.972Z,7.60
2022-11-15T11:40:26.424Z,7.60
2022-11-15T11:43:02.528Z,7.60
2022-11-15T11:45:50.879Z,7.60
2022-11-15T11:48:28.237Z,7.50
2022-11-15T11:51:03.138Z,7.40
2022-11-15T11:53:40.079Z,7.30
2022-11-15T11:56:16.940Z,7.20
2022-11-15T11:58:48.159Z,7.20
2022-11-15T12:01:24.380Z,7.20
2022-11-15T12:03:58.979Z,7.30
2022-11-15T12:06:34.335Z,7.30
2022-11-15T12:09:09.187Z,7.40
2022-11-15T12:11:44.564Z,7.40
2022-11-15T12:14:21.728Z,7.50
2022-11-15T12:16:51.235Z,7.50
2022-11-15T12:19:19.369Z,7.60
2022-11-15T12:21:52.665Z,7.60
2022-11-15T12:24:25.255Z,7.50
2022-11-15T12:27:03.904Z,7.40
2022-11-15T12:29:37.557Z,7.40
2022-11-15T12:32:19.191Z,7.40
2022-11-15T12:34:50.742Z,7.50
2022-11-15T12:37:56.253Z,7.50
2022-11-15T12:40:33.815Z,7.60
2022-11-15T12:43:38.658Z,7.50
2022-11-15T12:46:08.402Z,7.50
2022-11-15T12:48:55.949Z,7.50
2022-11-15T12:51:46.655Z,7.50
2022-11-15T12:54:54.462Z,7.60
2022-11-15T12:57:37.570Z,7.60
2022-11-15T13:00:45.186Z,7.60
2022-11-15T13:03:28.325Z,7.60
2022-11-15T13:06:06.927Z,7.60
2022-11-15T13:08:56.242Z,7.60
2022-11-15T13:11:52.673Z,7.60
2022-11-15T13:14:44.354Z,7.60
2022-11-15T13:17:33.765Z,7.60
2022-11-15T13:20:23.002Z,7.60
2022-11-15T13:22:53.335Z,7.60
2022-11-15T13:25:37.846Z,7.60
2022-11-15T13:28:19.465Z,7.60
2022-11-15T13:30:53.546Z,7.60
2022-11-15T13:33:24.931Z,7.60
2022-11-15T13:35:56.247Z,7.60
2022-11-15T13:38:31.716Z,7.60
2022-11-15T13:41:01.609Z,7.60
2022-11-15T13:43:33.974Z,7.60
2022-11-15T13:46:15.469Z,7.60
2022-11-15T13:48:44.609Z,7.60
2022-11-15T13:51:19.630Z,7.60
2022-11-15T13:53:53.906Z,7.60
2022-11-15T13:56:23.077Z,7.60
2022-11-15T13:58:51.353Z,7.60
2022-11-15T14:01:21.802Z,7.60
2022-11-15T14:03:54.148Z,7.60
2022-11-15T14:06:24.501Z,7.60
2022-11-15T14:09:06.744Z,7.60
2022-11-15T14:11:35.201Z,7.60
2022-11-15T14:14:16.688Z,7.50
2022-11-15T14:16:46.480Z,7.50
2022-11-15T14:19:35.185Z,7.50
2022-11-15T14:22:18.690Z,7.40
2022-11-15T14:24:50.011Z,7.50
2022-11-15T14:27:20.112Z,7.40
2022-11-15T14:29:49.161Z,7.40
2022-11-15T14:32:20.178Z,7.40
2022-11-15T14:34:48.621Z,7.40
2022-11-15T14:37:26.393Z,7.40
2022-11-15T14:39:56.685Z,7.40
2022-11-15T14:42:25.666Z,7.40
2022-11-15T14:44:54.085Z,7.40
2022-11-15T14:47:22.320Z,7.40
2022-11-15T14:49:50.492Z,7.40
2022-11-15T14:52:31.900Z,7.30
2022-11-15T14:55:03.426Z,7.30
2022-11-15T14:57:31.935Z,7.30
2022-11-15T15:00:00.095Z,7.30
2022-11-15T15:02:29.482Z,7.30
2022-11-15T15:05:02.057Z,7.30
2022-11-15T15:07:30.320Z,7.30
2022-11-15T15:10:24.488Z,7.30
2022-11-15T15:12:48.048Z,7.30
2022-11-15T15:15:17.818Z,7.30
2022-11-15T15:17:46.180Z,7.30
2022-11-15T15:20:14.296Z,7.30
2022-11-15T15:22:42.419Z,7.30
2022-11-15T15:25:23.837Z,7.30
2022-11-15T15:27:53.332Z,7.30
2022-11-15T15:30:21.625Z,7.30
2022-11-15T15:32:49.873Z,7.30
2022-11-15T15:35:19.354Z,7.30
2022-11-15T15:37:48.827Z,7.30
2022-11-15T15:40:19.083Z,7.30
2022-11-15T15:42:47.188Z,7.30
2022-11-15T15:45:17.568Z,7.20
2022-11-15T15:47:46.371Z,7.20
2022-11-15T15:50:24.256Z,7.20
2022-11-15T15:52:53.014Z,7.20
2022-11-15T15:55:21.229Z,7.20
2022-11-15T15:57:49.875Z,7.20
2022-11-15T16:00:20.890Z,7.20
2022-11-15T16:02:49.262Z,7.20
2022-11-15T16:05:18.362Z,7.20
2022-11-15T16:07:47.424Z,7.20
2022-11-15T16:10:22.151Z,7.20
2022-11-15T16:12:50.726Z,7.20
2022-11-15T16:15:20.910Z,7.20
2022-11-15T16:17:52.133Z,7.20
2022-11-15T16:20:38.208Z,7.10
2022-11-15T16:23:09.892Z,7.10
2022-11-15T16:25:42.902Z,7.10
2022-11-15T16:28:21.653Z,7.00
2022-11-15T16:31:00.663Z,6.90
2022-11-15T16:33:28.888Z,6.90
2022-11-15T16:35:57.074Z,6.90
2022-11-15T16:38:25.193Z,6.90
2022-11-15T16:40:54.139Z,6.90
2022-11-15T16:43:22.790Z,6.90
2022-11-15T16:45:52.718Z,6.90
2022-11-15T16:48:25.329Z,6.90
2022-11-15T16:50:56.958Z,7.00
2022-11-15T16:53:25.182Z,7.00
2022-11-15T16:55:53.313Z,6.90
2022-11-15T16:58:21.560Z,6.90
2022-11-15T17:00:54.396Z,6.90
2022-11-15T17:03:23.036Z,7.00
2022-11-15T17:05:51.646Z,7.00
2022-11-15T17:08:20.932Z,7.00
2022-11-15T17:10:49.124Z,7.00
2022-11-15T17:13:17.235Z,7.10
2022-11-15T17:15:45.369Z,7.10
2022-11-15T17:18:15.771Z,7.10
2022-11-15T17:20:44.478Z,7.10
2022-11-15T17:23:15.585Z,7.10
2022-11-15T17:25:44.104Z,7.10
2022-11-15T17:28:12.476Z,7.10
2022-11-15T17:30:43.452Z,7.10
2022-11-15T17:33:11.580Z,7.10
2022-11-15T17:35:41.072Z,7.10
2022-11-15T17:38:09.185Z,7.10
2022-11-15T17:40:37.295Z,7.10
2022-11-15T17:43:06.864Z,7.00
2022-11-15T17:45:35.252Z,7.00
2022-11-15T17:48:03.797Z,7.00
2022-11-15T17:50:31.931Z,7.00
2022-11-15T17:53:01.891Z,7.00
2022-11-15T17:55:29.992Z,7.00
2022-11-15T17:57:58.190Z,7.00
2022-11-15T18:00:26.396Z,7.00
2022-11-15T18:02:54.520Z,7.00
2022-11-15T18:05:22.657Z,7.00
2022-11-15T18:07:51.552Z,7.00
2022-11-15T18:10:21.132Z,7.00
2022-11-15T18:12:49.235Z,7.00
2022-11-15T18:15:19.149Z,7.00
2022-11-15T18:17:47.258Z,7.00
2022-11-15T18:20:15.469Z,7.00
2022-11-15T18:22:43.586Z,6.90
2022-11-15T18:25:11.736Z,7.00
2022-11-15T18:27:41.203Z,7.00
2022-11-15T18:30:10.540Z,6.90
2022-11-15T18:32:38.632Z,7.00
2022-11-15T18:35:07.889Z,7.00
2022-11-15T18:37:36.170Z,7.00
2022-11-15T18:40:04.596Z,7.00
2022-11-15T18:42:33.109Z,7.00
2022-11-15T18:45:02.968Z,7.00
2022-11-15T18:47:31.794Z,7.00
2022-11-15T18:49:59.895Z,7.00
2022-11-15T18:52:28.041Z,7.00
2022-11-15T18:54:56.165Z,6.90
2022-11-15T18:57:24.257Z,6.90
2022-11-15T18:59:52.354Z,6.90
2022-11-15T19:02:21.854Z,6.90
2022-11-15T19:04:49.969Z,6.80
2022-11-15T19:07:18.109Z,6.80
2022-11-15T19:09:46.758Z,6.80
2022-11-15T19:12:14.863Z,6.80
2022-11-15T19:14:43.170Z,6.80
2022-11-15T19:17:11.263Z,6.80
2022-11-15T19:19:40.750Z,6.80
2022-11-15T19:22:08.885Z,6.80
2022-11-15T19:24:36.981Z,6.80
2022-11-15T19:27:05.165Z,6.80
2022-11-15T19:29:33.251Z,6.80
2022-11-15T19:32:02.209Z,6.80
2022-11-15T19:34:30.308Z,6.80
2022-11-15T19:36:59.774Z,6.70
2022-11-15T19:39:27.877Z,6.70
2022-11-15T19:41:56.182Z,6.70
2022-11-15T19:44:26.369Z,6.70
2022-11-15T19:46:54.494Z,6.70
2022-11-15T19:49:22.572Z,6.70
2022-11-15T19:51:50.717Z,6.70
2022-11-15T19:54:20.226Z,6.70
2022-11-15T19:56:48.345Z,6.70
2022-11-15T19:59:17.409Z,6.70
2022-11-15T20:01:45.713Z,6.70
2022-11-15T20:04:13.840Z,6.60
2022-11-15T20:06:43.425Z,6.70
2022-11-15T20:09:14.164Z,6.70
2022-11-15T20:11:44.150Z,6.70
2022-11-15T20:14:13.227Z,6.70
2022-11-15T20:16:41.689Z,6.70
2022-11-15T20:19:12.302Z,6.70
2022-11-15T20:21:40.703Z,6.70
2022-11-15T20:24:09.350Z,6.70
2022-11-15T20:26:37.453Z,6.70
2022-11-15T20:29:07.168Z,6.70
2022-11-15T20:31:35.497Z,6.70
2022-11-15T20:34:03.689Z,6.70
2022-11-15T20:36:31.816Z,6.70
2022-11-15T20:39:00.535Z,6.70
2022-11-15T20:41:29.277Z,6.70
2022-11-15T20:43:57.395Z,6.70
2022-11-15T20:46:26.916Z,6.70
2022-11-15T20:48:55.019Z,6.70
2022-11-15T20:51:23.161Z,6.70
2022-11-15T20:53:51.570Z,6.70
2022-11-15T20:56:22.200Z,6.60
2022-11-15T20:58:51.283Z,6.70
2022-11-15T21:01:23.544Z,6.70
2022-11-15T21:03:53.997Z,6.60
2022-11-15T21:06:22.243Z,6.70
2022-11-15T21:09:08.132Z,6.60
2022-11-15T21:11:53.932Z,6.60
2022-11-15T21:14:22.299Z,6.70
2022-11-15T21:16:50.425Z,6.60
2022-11-15T21:19:24.112Z,6.60
2022-11-15T21:21:56.424Z,6.60
2022-11-15T21:24:24.793Z,6.60
2022-11-15T21:26:53.123Z,6.60
2022-11-15T21:29:21.459Z,6.60
2022-11-15T21:31:51.388Z,6.60
2022-11-15T21:34:21.287Z,6.60
2022-11-15T21:36:49.407Z,6.60
2022-11-15T21:39:17.504Z,6.60
2022-11-15T21:41:45.631Z,6.60
2022-11-15T21:44:13.764Z,6.60
2022-11-15T21:46:41.863Z,6.50
2022-11-15T21:49:10.355Z,6.60
2022-11-15T21:51:39.953Z,6.60
2022-11-15T21:54:08.127Z,6.60
2022-11-15T21:56:36.881Z,6.60
2022-11-15T21:59:05.050Z,6.60
2022-11-15T22:01:50.448Z,6.60
2022-11-15T22:04:18.730Z,6.60
2022-11-15T22:06:49.090Z,6.60
2022-11-15T22:09:17.358Z,6.60
2022-11-15T22:11:45.668Z,6.60
2022-11-15T22:14:14.108Z,6.60
2022-11-15T22:16:42.416Z,6.60
2022-11-15T22:19:10.702Z,6.60
2022-11-15T22:21:40.171Z,6.60
2022-11-15T22:24:10.206Z,6.60
2022-11-15T22:26:38.542Z,6.60
2022-11-15T22:29:06.846Z,6.60
2022-11-15T22:31:35.129Z,6.60
2022-11-15T22:34:03.443Z,6.60
2022-11-15T22:36:47.004Z,6.60
2022-11-15T22:39:21.454Z,6.60
2022-11-15T22:41:49.770Z,6.60
2022-11-15T22:44:18.073Z,6.60
2022-11-15T22:46:46.381Z,6.60
2022-11-15T22:49:14.675Z,6.60
2022-11-15T22:51:42.980Z,6.60
2022-11-15T22:54:11.295Z,6.60
2022-11-15T22:56:40.996Z,6.60
2022-11-15T22:59:09.352Z,6.60
2022-11-15T23:01:37.659Z,6.60
2022-11-15T23:04:06.273Z,6.60
2022-11-15T23:06:34.671Z,6.60
2022-11-15T23:09:03.080Z,6.60
2022-11-15T23:11:48.614Z,6.60
2022-11-15T23:14:18.309Z,6.60
2022-11-15T23:16:46.606Z,6.60
2022-11-15T23:19:15.082Z,6.60
2022-11-15T23:22:02.776Z,6.60
2022-11-15T23:24:31.734Z,6.70
2022-11-15T23:27:01.627Z,6.70
2022-11-15T23:29:31.975Z,6.70
2022-11-15T23:32:17.800Z,6.70
2022-11-15T23:34:47.394Z,6.70
2022-11-15T23:37:16.602Z,6.60
2022-11-15T23:39:44.938Z,6.70
2022-11-15T23:42:20.170Z,6.70
2022-11-15T23:44:51.086Z,6.70
2022-11-15T23:47:20.095Z,6.70
2022-11-15T23:49:48.702Z,6.60
2022-11-15T23:52:17.374Z,6.60
2022-11-15T23:54:45.837Z,6.60
2022-11-15T23:57:14.139Z,6.60
2022-11-15T23:59:44.183Z,6.60
